CheckWX is a tool to help pilots better visualize weather data.  It is not intended as a substitute for an official pre-flight weather briefing.

22:56:56 UTC

KSET METAR
St Charles County Smartt Airport
St Charles, Missouri, USA
Current

1 hour ago

KSET 262154Z AUTO VRB05KT 10SM CLR 12/M02 A3036 RMK AO2 SLP283 T01221017 $
Observed
Mar-26 @ 21:54 UTC
Wind
  • Variable at 5 KTS
Visibility
10 SM
Flight Rules
VFR
Cloud Levels
  • Clear skies
Temperature
12°C / 54°F
Dewpoint
-2°C / 28°F
Humidity
38%
Altimeter
30.36" Hg
Pressure
1028.3 hPa
Previous

2 hours ago

KSET 262054Z AUTO 07004KT 10SM CLR 12/M02 A3037 RMK AO2 SLP285 T01221017 58021
Observed
Mar-26 @ 20:54 UTC
Wind
  • 070° at 4 KTS
Visibility
10 SM
Flight Rules
VFR
Cloud Levels
  • Clear skies
Temperature
12°C / 54°F
Dewpoint
-2°C / 28°F
Humidity
38%
Altimeter
30.37" Hg
Pressure
1028.5 hPa
Previous

3 hours ago

KSET 261954Z AUTO 05005KT 10SM CLR 12/M01 A3039 RMK AO2 SLP292 T01171006
Observed
Mar-26 @ 19:54 UTC
Wind
  • 050° at 5 KTS
Visibility
10 SM
Flight Rules
VFR
Cloud Levels
  • Clear skies
Temperature
12°C / 54°F
Dewpoint
-1°C / 30°F
Humidity
41%
Altimeter
30.39" Hg
Pressure
1029.2 hPa